sensor_id;sensor_type;location;lat;lon;timestamp;P1;durP1;ratioP1;P2;durP2;ratioP2
8694;SDS011;65580;49.446;6.854;2023-03-23T00:02:59;1923.43;;;917.33;;
8694;SDS011;65580;49.446;6.854;2023-03-23T00:07:03;1680.07;;;856.50;;
8694;SDS011;65580;49.446;6.854;2023-03-23T00:11:04;1981.03;;;912.65;;
8694;SDS011;65580;49.446;6.854;2023-03-23T00:15:08;1750.00;;;918.28;;
8694;SDS011;65580;49.446;6.854;2023-03-23T00:19:13;1844.60;;;907.95;;
8694;SDS011;65580;49.446;6.854;2023-03-23T00:23:16;1999.90;;;999.90;;
8694;SDS011;65580;49.446;6.854;2023-03-23T00:27:21;1999.90;;;942.63;;
8694;SDS011;65580;49.446;6.854;2023-03-23T00:31:23;1999.90;;;999.90;;
8694;SDS011;65580;49.446;6.854;2023-03-23T00:35:24;1999.90;;;999.90;;
8694;SDS011;65580;49.446;6.854;2023-03-23T00:39:29;1884.47;;;954.65;;
8694;SDS011;65580;49.446;6.854;2023-03-23T00:43:31;1444.60;;;810.88;;
8694;SDS011;65580;49.446;6.854;2023-03-23T00:47:36;1999.90;;;993.38;;
8694;SDS011;65580;49.446;6.854;2023-03-23T00:51:37;837.58;;;741.63;;
8694;SDS011;65580;49.446;6.854;2023-03-23T00:55:41;1999.90;;;889.55;;
8694;SDS011;65580;49.446;6.854;2023-03-23T00:59:43;1999.90;;;999.90;;
8694;SDS011;65580;49.446;6.854;2023-03-23T01:03:45;1999.90;;;999.90;;
8694;SDS011;65580;49.446;6.854;2023-03-23T01:07:46;1262.57;;;844.60;;
8694;SDS011;65580;49.446;6.854;2023-03-23T01:11:50;1999.90;;;999.90;;
8694;SDS011;65580;49.446;6.854;2023-03-23T01:19:53;1391.43;;;906.90;;
8694;SDS011;65580;49.446;6.854;2023-03-23T01:23:56;1999.90;;;999.90;;
8694;SDS011;65580;49.446;6.854;2023-03-23T01:27:59;1999.90;;;999.90;;
8694;SDS011;65580;49.446;6.854;2023-03-23T01:32:01;1991.55;;;939.17;;
8694;SDS011;65580;49.446;6.854;2023-03-23T01:36:04;417.85;;;379.77;;
8694;SDS011;65580;49.446;6.854;2023-03-23T01:40:07;1339.38;;;639.15;;
8694;SDS011;65580;49.446;6.854;2023-03-23T01:48:46;1221.25;;;784.78;;
8694;SDS011;65580;49.446;6.854;2023-03-23T01:52:47;437.02;;;368.88;;
8694;SDS011;65580;49.446;6.854;2023-03-23T01:56:50;853.78;;;711.80;;
8694;SDS011;65580;49.446;6.854;2023-03-23T02:00:54;715.42;;;456.58;;
8694;SDS011;65580;49.446;6.854;2023-03-23T02:04:59;684.90;;;493.63;;
8694;SDS011;65580;49.446;6.854;2023-03-23T02:09:04;719.25;;;522.80;;
8694;SDS011;65580;49.446;6.854;2023-03-23T02:13:07;993.78;;;728.55;;
8694;SDS011;65580;49.446;6.854;2023-03-23T02:17:09;751.08;;;632.67;;
8694;SDS011;65580;49.446;6.854;2023-03-23T02:30:09;2.28;;;1.33;;
8694;SDS011;65580;49.446;6.854;2023-03-23T02:34:17;3.13;;;1.67;;
8694;SDS011;65580;49.446;6.854;2023-03-23T02:38:21;2.65;;;1.45;;
8694;SDS011;65580;49.446;6.854;2023-03-23T02:42:26;2.67;;;1.30;;
8694;SDS011;65580;49.446;6.854;2023-03-23T02:46:31;3.08;;;1.48;;
8694;SDS011;65580;49.446;6.854;2023-03-23T02:50:35;2.40;;;1.50;;
8694;SDS011;65580;49.446;6.854;2023-03-23T02:54:38;3.60;;;1.70;;
8694;SDS011;65580;49.446;6.854;2023-03-23T02:58:40;8.32;;;3.05;;
8694;SDS011;65580;49.446;6.854;2023-03-23T03:02:42;4.22;;;1.80;;
8694;SDS011;65580;49.446;6.854;2023-03-23T03:06:47;2.60;;;1.60;;
8694;SDS011;65580;49.446;6.854;2023-03-23T03:10:57;1.98;;;1.40;;
8694;SDS011;65580;49.446;6.854;2023-03-23T03:15:04;5.38;;;1.60;;
8694;SDS011;65580;49.446;6.854;2023-03-23T03:19:11;13.20;;;11.95;;
8694;SDS011;65580;49.446;6.854;2023-03-23T03:23:17;5.40;;;1.63;;
8694;SDS011;65580;49.446;6.854;2023-03-23T03:27:20;3.15;;;1.85;;
8694;SDS011;65580;49.446;6.854;2023-03-23T03:31:23;4.22;;;1.95;;
8694;SDS011;65580;49.446;6.854;2023-03-23T03:35:27;5.25;;;2.30;;
8694;SDS011;65580;49.446;6.854;2023-03-23T03:39:33;3.10;;;1.85;;
8694;SDS011;65580;49.446;6.854;2023-03-23T03:43:35;3.10;;;1.90;;
8694;SDS011;65580;49.446;6.854;2023-03-23T03:47:37;5.15;;;2.03;;
8694;SDS011;65580;49.446;6.854;2023-03-23T03:51:40;5.75;;;1.85;;
8694;SDS011;65580;49.446;6.854;2023-03-23T03:55:43;3.28;;;2.08;;
8694;SDS011;65580;49.446;6.854;2023-03-23T03:59:45;3.63;;;1.92;;
8694;SDS011;65580;49.446;6.854;2023-03-23T04:03:47;3.70;;;1.90;;
8694;SDS011;65580;49.446;6.854;2023-03-23T04:07:49;5.30;;;2.45;;
8694;SDS011;65580;49.446;6.854;2023-03-23T04:11:53;4.80;;;2.38;;
8694;SDS011;65580;49.446;6.854;2023-03-23T04:15:55;3.03;;;2.17;;
8694;SDS011;65580;49.446;6.854;2023-03-23T04:19:56;4.10;;;2.13;;
8694;SDS011;65580;49.446;6.854;2023-03-23T04:24:00;3.70;;;2.30;;
8694;SDS011;65580;49.446;6.854;2023-03-23T04:28:04;4.85;;;2.28;;
8694;SDS011;65580;49.446;6.854;2023-03-23T04:32:07;2.97;;;1.98;;
8694;SDS011;65580;49.446;6.854;2023-03-23T04:36:08;2.92;;;2.10;;
8694;SDS011;65580;49.446;6.854;2023-03-23T04:40:10;4.10;;;2.10;;
8694;SDS011;65580;49.446;6.854;2023-03-23T04:44:16;6.35;;;2.10;;
8694;SDS011;65580;49.446;6.854;2023-03-23T04:48:21;6.28;;;2.67;;
8694;SDS011;65580;49.446;6.854;2023-03-23T04:52:24;5.43;;;2.00;;
8694;SDS011;65580;49.446;6.854;2023-03-23T04:56:25;3.75;;;1.80;;
8694;SDS011;65580;49.446;6.854;2023-03-23T05:00:29;4.07;;;2.40;;
8694;SDS011;65580;49.446;6.854;2023-03-23T05:04:30;4.13;;;2.10;;
8694;SDS011;65580;49.446;6.854;2023-03-23T05:08:33;6.55;;;2.20;;
8694;SDS011;65580;49.446;6.854;2023-03-23T05:12:39;3.88;;;1.90;;
8694;SDS011;65580;49.446;6.854;2023-03-23T05:16:42;3.42;;;2.10;;
8694;SDS011;65580;49.446;6.854;2023-03-23T05:20:48;4.25;;;2.03;;
8694;SDS011;65580;49.446;6.854;2023-03-23T05:24:52;4.80;;;2.33;;
8694;SDS011;65580;49.446;6.854;2023-03-23T05:28:54;4.00;;;1.90;;
8694;SDS011;65580;49.446;6.854;2023-03-23T05:32:57;6.00;;;2.17;;
8694;SDS011;65580;49.446;6.854;2023-03-23T05:37:00;3.13;;;1.67;;
8694;SDS011;65580;49.446;6.854;2023-03-23T05:41:01;2.72;;;2.20;;
8694;SDS011;65580;49.446;6.854;2023-03-23T05:45:04;5.07;;;2.65;;
8694;SDS011;65580;49.446;6.854;2023-03-23T05:49:07;16.95;;;7.47;;
8694;SDS011;65580;49.446;6.854;2023-03-23T05:53:09;7.57;;;3.00;;
8694;SDS011;65580;49.446;6.854;2023-03-23T05:57:11;4.22;;;2.63;;
8694;SDS011;65580;49.446;6.854;2023-03-23T06:01:12;4.30;;;2.30;;
8694;SDS011;65580;49.446;6.854;2023-03-23T06:05:17;3.60;;;2.05;;
8694;SDS011;65580;49.446;6.854;2023-03-23T06:09:19;6.72;;;2.47;;
8694;SDS011;65580;49.446;6.854;2023-03-23T06:13:23;2.38;;;1.80;;
8694;SDS011;65580;49.446;6.854;2023-03-23T06:17:25;3.85;;;1.95;;
8694;SDS011;65580;49.446;6.854;2023-03-23T06:21:28;5.15;;;2.25;;
8694;SDS011;65580;49.446;6.854;2023-03-23T06:25:29;3.97;;;1.85;;
8694;SDS011;65580;49.446;6.854;2023-03-23T06:29:31;4.40;;;1.98;;
8694;SDS011;65580;49.446;6.854;2023-03-23T06:33:33;3.20;;;1.95;;
8694;SDS011;65580;49.446;6.854;2023-03-23T06:37:37;4.18;;;2.10;;
8694;SDS011;65580;49.446;6.854;2023-03-23T06:41:38;2.30;;;1.70;;
8694;SDS011;65580;49.446;6.854;2023-03-23T06:45:40;4.38;;;2.33;;
8694;SDS011;65580;49.446;6.854;2023-03-23T06:49:42;3.17;;;1.90;;
8694;SDS011;65580;49.446;6.854;2023-03-23T06:53:45;2.83;;;1.67;;
8694;SDS011;65580;49.446;6.854;2023-03-23T06:57:47;4.38;;;2.08;;
8694;SDS011;65580;49.446;6.854;2023-03-23T07:01:48;2.83;;;1.80;;
8694;SDS011;65580;49.446;6.854;2023-03-23T07:05:50;4.40;;;1.73;;
8694;SDS011;65580;49.446;6.854;2023-03-23T07:09:53;2.45;;;1.70;;
8694;SDS011;65580;49.446;6.854;2023-03-23T07:13:55;5.32;;;1.60;;
8694;SDS011;65580;49.446;6.854;2023-03-23T07:17:57;4.78;;;1.92;;
8694;SDS011;65580;49.446;6.854;2023-03-23T07:21:58;3.70;;;2.05;;
8694;SDS011;65580;49.446;6.854;2023-03-23T07:26:01;7.03;;;1.90;;
8694;SDS011;65580;49.446;6.854;2023-03-23T07:30:03;4.18;;;2.08;;
8694;SDS011;65580;49.446;6.854;2023-03-23T07:34:06;3.83;;;1.77;;
8694;SDS011;65580;49.446;6.854;2023-03-23T07:38:08;4.72;;;2.42;;
8694;SDS011;65580;49.446;6.854;2023-03-23T07:42:11;2.60;;;1.70;;
8694;SDS011;65580;49.446;6.854;2023-03-23T07:46:12;3.33;;;1.90;;
8694;SDS011;65580;49.446;6.854;2023-03-23T07:50:14;4.22;;;1.55;;
8694;SDS011;65580;49.446;6.854;2023-03-23T07:54:16;2.45;;;1.70;;
8694;SDS011;65580;49.446;6.854;2023-03-23T07:58:19;3.75;;;1.90;;
8694;SDS011;65580;49.446;6.854;2023-03-23T08:02:21;5.38;;;1.83;;
8694;SDS011;65580;49.446;6.854;2023-03-23T08:06:22;3.13;;;1.73;;
8694;SDS011;65580;49.446;6.854;2023-03-23T08:10:24;3.38;;;1.63;;
8694;SDS011;65580;49.446;6.854;2023-03-23T08:14:28;4.75;;;2.00;;
8694;SDS011;65580;49.446;6.854;2023-03-23T08:18:30;3.15;;;1.70;;
8694;SDS011;65580;49.446;6.854;2023-03-23T08:22:34;3.17;;;1.50;;
8694;SDS011;65580;49.446;6.854;2023-03-23T08:26:36;1.80;;;1.30;;
8694;SDS011;65580;49.446;6.854;2023-03-23T08:30:40;2.72;;;1.67;;
8694;SDS011;65580;49.446;6.854;2023-03-23T08:34:43;3.58;;;1.60;;
8694;SDS011;65580;49.446;6.854;2023-03-23T08:38:45;2.53;;;1.63;;
8694;SDS011;65580;49.446;6.854;2023-03-23T08:42:47;3.78;;;1.80;;
8694;SDS011;65580;49.446;6.854;2023-03-23T08:46:51;3.03;;;2.03;;
8694;SDS011;65580;49.446;6.854;2023-03-23T08:50:56;7.43;;;2.50;;
8694;SDS011;65580;49.446;6.854;2023-03-23T08:54:58;4.95;;;2.40;;
8694;SDS011;65580;49.446;6.854;2023-03-23T08:59:00;4.78;;;2.25;;
8694;SDS011;65580;49.446;6.854;2023-03-23T09:03:03;3.25;;;2.10;;
8694;SDS011;65580;49.446;6.854;2023-03-23T09:07:05;2.60;;;1.58;;
8694;SDS011;65580;49.446;6.854;2023-03-23T09:11:08;3.83;;;1.58;;
8694;SDS011;65580;49.446;6.854;2023-03-23T09:15:12;4.35;;;1.60;;
8694;SDS011;65580;49.446;6.854;2023-03-23T09:19:16;2.25;;;1.30;;
8694;SDS011;65580;49.446;6.854;2023-03-23T09:27:20;2.67;;;1.40;;
8694;SDS011;65580;49.446;6.854;2023-03-23T09:31:22;5.63;;;1.33;;
8694;SDS011;65580;49.446;6.854;2023-03-23T09:35:27;3.30;;;1.30;;
8694;SDS011;65580;49.446;6.854;2023-03-23T09:43:35;5.15;;;1.90;;
8694;SDS011;65580;49.446;6.854;2023-03-23T09:47:43;4.07;;;1.38;;
8694;SDS011;65580;49.446;6.854;2023-03-23T09:51:59;1.90;;;1.50;;
8694;SDS011;65580;49.446;6.854;2023-03-23T09:56:05;3.38;;;1.60;;
8694;SDS011;65580;49.446;6.854;2023-03-23T10:00:12;1.42;;;1.30;;
8694;SDS011;65580;49.446;6.854;2023-03-23T10:04:21;2.42;;;1.20;;
8694;SDS011;65580;49.446;6.854;2023-03-23T10:08:30;1.25;;;1.05;;
8694;SDS011;65580;49.446;6.854;2023-03-23T10:12:36;2.03;;;1.10;;
8694;SDS011;65580;49.446;6.854;2023-03-23T10:16:40;6.15;;;1.98;;
8694;SDS011;65580;49.446;6.854;2023-03-23T10:20:46;2.90;;;1.98;;
8694;SDS011;65580;49.446;6.854;2023-03-23T10:24:52;5.32;;;2.85;;
8694;SDS011;65580;49.446;6.854;2023-03-23T10:29:00;3.28;;;1.95;;
8694;SDS011;65580;49.446;6.854;2023-03-23T10:33:08;4.80;;;2.60;;
8694;SDS011;65580;49.446;6.854;2023-03-23T10:37:14;3.78;;;2.92;;
8694;SDS011;65580;49.446;6.854;2023-03-23T10:41:19;5.18;;;3.20;;
8694;SDS011;65580;49.446;6.854;2023-03-23T10:45:23;3.30;;;2.20;;
8694;SDS011;65580;49.446;6.854;2023-03-23T10:49:27;6.53;;;2.55;;
8694;SDS011;65580;49.446;6.854;2023-03-23T10:53:31;4.18;;;2.00;;
8694;SDS011;65580;49.446;6.854;2023-03-23T10:57:37;3.15;;;1.45;;
8694;SDS011;65580;49.446;6.854;2023-03-23T11:01:41;1.90;;;1.60;;
8694;SDS011;65580;49.446;6.854;2023-03-23T11:05:47;1.98;;;1.30;;
8694;SDS011;65580;49.446;6.854;2023-03-23T11:09:51;1.95;;;1.25;;
8694;SDS011;65580;49.446;6.854;2023-03-23T11:13:58;4.35;;;1.38;;
8694;SDS011;65580;49.446;6.854;2023-03-23T11:18:02;2.10;;;1.20;;
8694;SDS011;65580;49.446;6.854;2023-03-23T11:22:08;2.28;;;1.25;;
8694;SDS011;65580;49.446;6.854;2023-03-23T11:26:14;3.20;;;1.30;;
8694;SDS011;65580;49.446;6.854;2023-03-23T11:30:21;2.78;;;1.30;;
8694;SDS011;65580;49.446;6.854;2023-03-23T11:34:25;2.22;;;1.38;;
8694;SDS011;65580;49.446;6.854;2023-03-23T11:38:32;2.25;;;1.10;;
8694;SDS011;65580;49.446;6.854;2023-03-23T11:42:36;2.25;;;1.40;;
8694;SDS011;65580;49.446;6.854;2023-03-23T11:46:44;5.32;;;2.00;;
8694;SDS011;65580;49.446;6.854;2023-03-23T11:50:51;4.88;;;1.60;;
8694;SDS011;65580;49.446;6.854;2023-03-23T11:54:54;2.80;;;1.35;;
8694;SDS011;65580;49.446;6.854;2023-03-23T11:59:00;3.92;;;1.42;;
8694;SDS011;65580;49.446;6.854;2023-03-23T12:03:05;2.72;;;1.30;;
8694;SDS011;65580;49.446;6.854;2023-03-23T12:07:23;2.28;;;1.33;;
8694;SDS011;65580;49.446;6.854;2023-03-23T12:11:32;4.28;;;1.40;;
8694;SDS011;65580;49.446;6.854;2023-03-23T12:15:43;5.00;;;1.80;;
8694;SDS011;65580;49.446;6.854;2023-03-23T12:19:55;5.38;;;1.67;;
8694;SDS011;65580;49.446;6.854;2023-03-23T12:24:13;4.68;;;1.80;;
8694;SDS011;65580;49.446;6.854;2023-03-23T12:28:23;2.70;;;1.60;;
8694;SDS011;65580;49.446;6.854;2023-03-23T12:32:37;2.30;;;1.42;;
8694;SDS011;65580;49.446;6.854;2023-03-23T12:36:47;3.00;;;1.58;;
8694;SDS011;65580;49.446;6.854;2023-03-23T12:41:02;3.10;;;1.50;;
8694;SDS011;65580;49.446;6.854;2023-03-23T12:45:12;4.40;;;1.77;;
8694;SDS011;65580;49.446;6.854;2023-03-23T12:49:24;1.95;;;1.40;;
8694;SDS011;65580;49.446;6.854;2023-03-23T12:53:29;3.03;;;1.70;;
8694;SDS011;65580;49.446;6.854;2023-03-23T12:57:34;1.92;;;1.10;;
8694;SDS011;65580;49.446;6.854;2023-03-23T13:01:42;3.25;;;1.30;;
8694;SDS011;65580;49.446;6.854;2023-03-23T13:05:46;2.20;;;1.20;;
8694;SDS011;65580;49.446;6.854;2023-03-23T13:09:58;2.15;;;1.15;;
8694;SDS011;65580;49.446;6.854;2023-03-23T13:14:12;3.22;;;1.45;;
8694;SDS011;65580;49.446;6.854;2023-03-23T13:18:36;2.97;;;1.27;;
8694;SDS011;65580;49.446;6.854;2023-03-23T13:22:42;3.58;;;1.60;;
8694;SDS011;65580;49.446;6.854;2023-03-23T13:26:53;3.47;;;1.40;;
8694;SDS011;65580;49.446;6.854;2023-03-23T13:30:59;1.60;;;1.15;;
8694;SDS011;65580;49.446;6.854;2023-03-23T13:35:02;5.85;;;1.40;;
8694;SDS011;65580;49.446;6.854;2023-03-23T13:43:30;1.92;;;1.27;;
8694;SDS011;65580;49.446;6.854;2023-03-23T13:47:36;1.92;;;1.10;;
8694;SDS011;65580;49.446;6.854;2023-03-23T13:51:47;3.00;;;1.00;;
8694;SDS011;65580;49.446;6.854;2023-03-23T13:56:05;2.00;;;1.13;;
8694;SDS011;65580;49.446;6.854;2023-03-23T14:00:12;1.88;;;0.90;;
8694;SDS011;65580;49.446;6.854;2023-03-23T14:04:36;1.67;;;1.02;;
8694;SDS011;65580;49.446;6.854;2023-03-23T14:08:38;4.82;;;1.70;;
8694;SDS011;65580;49.446;6.854;2023-03-23T14:12:41;3.72;;;1.30;;
8694;SDS011;65580;49.446;6.854;2023-03-23T14:16:44;1.83;;;1.30;;
8694;SDS011;65580;49.446;6.854;2023-03-23T14:20:51;2.03;;;1.23;;
8694;SDS011;65580;49.446;6.854;2023-03-23T14:24:58;2.70;;;1.60;;
8694;SDS011;65580;49.446;6.854;2023-03-23T14:29:01;2.95;;;1.63;;
8694;SDS011;65580;49.446;6.854;2023-03-23T14:33:05;3.58;;;1.80;;
8694;SDS011;65580;49.446;6.854;2023-03-23T14:37:09;3.92;;;1.70;;
8694;SDS011;65580;49.446;6.854;2023-03-23T14:41:12;4.80;;;1.80;;
8694;SDS011;65580;49.446;6.854;2023-03-23T14:45:15;3.10;;;1.60;;
8694;SDS011;65580;49.446;6.854;2023-03-23T14:49:21;2.20;;;1.10;;
8694;SDS011;65580;49.446;6.854;2023-03-23T14:53:29;3.30;;;1.60;;
8694;SDS011;65580;49.446;6.854;2023-03-23T14:57:33;2.35;;;1.17;;
8694;SDS011;65580;49.446;6.854;2023-03-23T15:01:35;4.10;;;1.55;;
8694;SDS011;65580;49.446;6.854;2023-03-23T15:05:42;2.25;;;0.90;;
8694;SDS011;65580;49.446;6.854;2023-03-23T15:09:45;3.47;;;1.20;;
8694;SDS011;65580;49.446;6.854;2023-03-23T15:13:49;3.10;;;1.20;;
8694;SDS011;65580;49.446;6.854;2023-03-23T15:17:54;3.13;;;1.13;;
8694;SDS011;65580;49.446;6.854;2023-03-23T15:22:03;2.92;;;1.30;;
8694;SDS011;65580;49.446;6.854;2023-03-23T15:26:18;4.55;;;1.30;;
8694;SDS011;65580;49.446;6.854;2023-03-23T15:30:30;3.58;;;1.10;;
8694;SDS011;65580;49.446;6.854;2023-03-23T15:34:34;3.67;;;1.23;;
8694;SDS011;65580;49.446;6.854;2023-03-23T15:38:42;2.05;;;1.20;;
8694;SDS011;65580;49.446;6.854;2023-03-23T15:42:44;2.70;;;1.25;;
8694;SDS011;65580;49.446;6.854;2023-03-23T15:46:47;4.88;;;1.40;;
8694;SDS011;65580;49.446;6.854;2023-03-23T15:50:50;4.25;;;1.30;;
8694;SDS011;65580;49.446;6.854;2023-03-23T15:54:54;3.10;;;1.35;;
8694;SDS011;65580;49.446;6.854;2023-03-23T15:58:56;1.90;;;1.48;;
8694;SDS011;65580;49.446;6.854;2023-03-23T16:03:01;6.60;;;2.17;;
8694;SDS011;65580;49.446;6.854;2023-03-23T16:07:07;3.97;;;1.80;;
8694;SDS011;65580;49.446;6.854;2023-03-23T16:11:16;3.85;;;1.77;;
8694;SDS011;65580;49.446;6.854;2023-03-23T16:15:20;4.93;;;1.80;;
8694;SDS011;65580;49.446;6.854;2023-03-23T16:19:23;3.00;;;1.30;;
8694;SDS011;65580;49.446;6.854;2023-03-23T16:23:25;2.80;;;1.50;;
8694;SDS011;65580;49.446;6.854;2023-03-23T16:27:30;3.60;;;1.80;;
8694;SDS011;65580;49.446;6.854;2023-03-23T16:31:33;2.28;;;1.80;;
8694;SDS011;65580;49.446;6.854;2023-03-23T16:35:36;3.60;;;1.80;;
8694;SDS011;65580;49.446;6.854;2023-03-23T16:39:38;5.25;;;2.35;;
8694;SDS011;65580;49.446;6.854;2023-03-23T16:43:43;3.17;;;1.70;;
8694;SDS011;65580;49.446;6.854;2023-03-23T16:47:46;3.72;;;2.03;;
8694;SDS011;65580;49.446;6.854;2023-03-23T16:51:48;3.85;;;1.85;;
8694;SDS011;65580;49.446;6.854;2023-03-23T16:55:52;4.50;;;1.70;;
8694;SDS011;65580;49.446;6.854;2023-03-23T16:59:59;4.43;;;2.10;;
8694;SDS011;65580;49.446;6.854;2023-03-23T17:04:02;3.22;;;1.40;;
8694;SDS011;65580;49.446;6.854;2023-03-23T17:08:05;4.70;;;1.65;;
8694;SDS011;65580;49.446;6.854;2023-03-23T17:12:08;5.88;;;1.95;;
8694;SDS011;65580;49.446;6.854;2023-03-23T17:16:13;7.43;;;2.78;;
8694;SDS011;65580;49.446;6.854;2023-03-23T17:20:16;2.55;;;1.65;;
8694;SDS011;65580;49.446;6.854;2023-03-23T17:24:19;3.00;;;1.77;;
8694;SDS011;65580;49.446;6.854;2023-03-23T17:28:21;4.60;;;1.80;;
8694;SDS011;65580;49.446;6.854;2023-03-23T17:32:26;5.13;;;1.73;;
8694;SDS011;65580;49.446;6.854;2023-03-23T17:36:29;3.55;;;1.73;;
8694;SDS011;65580;49.446;6.854;2023-03-23T17:40:32;3.58;;;1.70;;
8694;SDS011;65580;49.446;6.854;2023-03-23T17:44:35;3.28;;;1.50;;
8694;SDS011;65580;49.446;6.854;2023-03-23T17:48:39;5.72;;;1.70;;
8694;SDS011;65580;49.446;6.854;2023-03-23T17:52:42;3.40;;;1.90;;
8694;SDS011;65580;49.446;6.854;2023-03-23T17:56:45;7.25;;;2.05;;
8694;SDS011;65580;49.446;6.854;2023-03-23T18:00:48;3.75;;;2.00;;
8694;SDS011;65580;49.446;6.854;2023-03-23T18:04:55;4.15;;;2.13;;
8694;SDS011;65580;49.446;6.854;2023-03-23T18:08:58;4.90;;;1.88;;
8694;SDS011;65580;49.446;6.854;2023-03-23T18:13:01;4.57;;;1.65;;
8694;SDS011;65580;49.446;6.854;2023-03-23T18:17:05;5.03;;;1.90;;
8694;SDS011;65580;49.446;6.854;2023-03-23T18:21:09;5.03;;;1.83;;
8694;SDS011;65580;49.446;6.854;2023-03-23T18:25:12;4.95;;;1.58;;
8694;SDS011;65580;49.446;6.854;2023-03-23T18:29:15;3.85;;;2.28;;
8694;SDS011;65580;49.446;6.854;2023-03-23T18:33:19;4.57;;;2.20;;
8694;SDS011;65580;49.446;6.854;2023-03-23T18:37:24;4.97;;;2.13;;
8694;SDS011;65580;49.446;6.854;2023-03-23T18:41:27;3.63;;;2.28;;
8694;SDS011;65580;49.446;6.854;2023-03-23T18:45:30;41.15;;;18.08;;
8694;SDS011;65580;49.446;6.854;2023-03-23T18:49:34;64.80;;;24.17;;
8694;SDS011;65580;49.446;6.854;2023-03-23T18:53:38;9.00;;;3.53;;
8694;SDS011;65580;49.446;6.854;2023-03-23T18:57:41;4.80;;;2.05;;
8694;SDS011;65580;49.446;6.854;2023-03-23T19:01:44;4.63;;;2.30;;
8694;SDS011;65580;49.446;6.854;2023-03-23T19:05:50;4.22;;;2.30;;
8694;SDS011;65580;49.446;6.854;2023-03-23T19:09:54;4.32;;;2.15;;
8694;SDS011;65580;49.446;6.854;2023-03-23T19:13:57;4.38;;;1.92;;
8694;SDS011;65580;49.446;6.854;2023-03-23T19:18:04;3.83;;;2.28;;
8694;SDS011;65580;49.446;6.854;2023-03-23T19:22:07;2.83;;;2.10;;
8694;SDS011;65580;49.446;6.854;2023-03-23T19:26:14;4.00;;;2.38;;
8694;SDS011;65580;49.446;6.854;2023-03-23T19:30:21;5.07;;;2.30;;
8694;SDS011;65580;49.446;6.854;2023-03-23T19:34:24;7.80;;;2.92;;
8694;SDS011;65580;49.446;6.854;2023-03-23T19:38:28;7.18;;;2.60;;
8694;SDS011;65580;49.446;6.854;2023-03-23T19:42:32;7.50;;;3.03;;
8694;SDS011;65580;49.446;6.854;2023-03-23T19:46:35;6.95;;;3.95;;
8694;SDS011;65580;49.446;6.854;2023-03-23T19:50:38;7.63;;;3.53;;
8694;SDS011;65580;49.446;6.854;2023-03-23T19:54:42;6.38;;;3.40;;
8694;SDS011;65580;49.446;6.854;2023-03-23T19:58:47;6.88;;;4.10;;
8694;SDS011;65580;49.446;6.854;2023-03-23T20:02:51;6.32;;;3.38;;
8694;SDS011;65580;49.446;6.854;2023-03-23T20:06:55;5.40;;;3.17;;
8694;SDS011;65580;49.446;6.854;2023-03-23T20:11:03;10.60;;;3.03;;
8694;SDS011;65580;49.446;6.854;2023-03-23T20:15:09;8.20;;;3.67;;
8694;SDS011;65580;49.446;6.854;2023-03-23T20:19:12;6.55;;;3.60;;
8694;SDS011;65580;49.446;6.854;2023-03-23T20:23:14;6.15;;;3.38;;
8694;SDS011;65580;49.446;6.854;2023-03-23T20:27:17;8.25;;;3.40;;
8694;SDS011;65580;49.446;6.854;2023-03-23T20:31:22;6.15;;;3.67;;
8694;SDS011;65580;49.446;6.854;2023-03-23T20:35:27;7.35;;;3.90;;
8694;SDS011;65580;49.446;6.854;2023-03-23T20:39:31;6.15;;;3.53;;
8694;SDS011;65580;49.446;6.854;2023-03-23T20:43:34;7.10;;;3.70;;
8694;SDS011;65580;49.446;6.854;2023-03-23T20:47:39;7.43;;;3.70;;
8694;SDS011;65580;49.446;6.854;2023-03-23T20:51:42;7.93;;;4.30;;
8694;SDS011;65580;49.446;6.854;2023-03-23T20:55:46;5.68;;;3.85;;
8694;SDS011;65580;49.446;6.854;2023-03-23T20:59:49;9.40;;;5.50;;
8694;SDS011;65580;49.446;6.854;2023-03-23T21:03:54;9.82;;;4.18;;
8694;SDS011;65580;49.446;6.854;2023-03-23T21:07:58;9.40;;;4.40;;
8694;SDS011;65580;49.446;6.854;2023-03-23T21:12:02;8.60;;;4.68;;
8694;SDS011;65580;49.446;6.854;2023-03-23T21:16:06;9.93;;;4.85;;
8694;SDS011;65580;49.446;6.854;2023-03-23T21:20:10;12.65;;;6.40;;
8694;SDS011;65580;49.446;6.854;2023-03-23T21:24:13;15.65;;;8.20;;
8694;SDS011;65580;49.446;6.854;2023-03-23T21:28:16;12.60;;;6.05;;
8694;SDS011;65580;49.446;6.854;2023-03-23T21:32:19;11.20;;;6.40;;
8694;SDS011;65580;49.446;6.854;2023-03-23T21:36:24;10.90;;;6.50;;
8694;SDS011;65580;49.446;6.854;2023-03-23T21:40:27;13.25;;;6.65;;
8694;SDS011;65580;49.446;6.854;2023-03-23T21:44:30;11.00;;;6.63;;
8694;SDS011;65580;49.446;6.854;2023-03-23T21:48:35;12.98;;;7.32;;
8694;SDS011;65580;49.446;6.854;2023-03-23T21:52:40;12.85;;;5.65;;
8694;SDS011;65580;49.446;6.854;2023-03-23T21:56:43;10.43;;;6.15;;
8694;SDS011;65580;49.446;6.854;2023-03-23T22:00:46;15.10;;;7.18;;
8694;SDS011;65580;49.446;6.854;2023-03-23T22:04:50;10.23;;;5.97;;
8694;SDS011;65580;49.446;6.854;2023-03-23T22:08:57;11.00;;;6.07;;
8694;SDS011;65580;49.446;6.854;2023-03-23T22:13:00;14.23;;;6.22;;
8694;SDS011;65580;49.446;6.854;2023-03-23T22:17:03;11.38;;;5.75;;
8694;SDS011;65580;49.446;6.854;2023-03-23T22:21:06;10.48;;;5.80;;
8694;SDS011;65580;49.446;6.854;2023-03-23T22:25:10;12.23;;;5.47;;
8694;SDS011;65580;49.446;6.854;2023-03-23T22:29:13;9.55;;;4.93;;
8694;SDS011;65580;49.446;6.854;2023-03-23T22:33:17;10.52;;;5.28;;
8694;SDS011;65580;49.446;6.854;2023-03-23T22:37:20;13.02;;;5.90;;
8694;SDS011;65580;49.446;6.854;2023-03-23T22:41:24;10.57;;;6.05;;
8694;SDS011;65580;49.446;6.854;2023-03-23T22:45:29;12.10;;;8.15;;
8694;SDS011;65580;49.446;6.854;2023-03-23T22:49:32;6.43;;;3.85;;
8694;SDS011;65580;49.446;6.854;2023-03-23T22:53:36;10.82;;;5.85;;
8694;SDS011;65580;49.446;6.854;2023-03-23T22:57:40;19.80;;;9.13;;
8694;SDS011;65580;49.446;6.854;2023-03-23T23:01:43;11.18;;;6.32;;
8694;SDS011;65580;49.446;6.854;2023-03-23T23:05:47;24.63;;;11.65;;
8694;SDS011;65580;49.446;6.854;2023-03-23T23:09:51;13.30;;;7.07;;
8694;SDS011;65580;49.446;6.854;2023-03-23T23:13:55;9.55;;;4.68;;
8694;SDS011;65580;49.446;6.854;2023-03-23T23:17:58;18.77;;;9.77;;
8694;SDS011;65580;49.446;6.854;2023-03-23T23:22:01;13.63;;;6.28;;
8694;SDS011;65580;49.446;6.854;2023-03-23T23:26:19;16.92;;;8.88;;
8694;SDS011;65580;49.446;6.854;2023-03-23T23:30:24;36.22;;;17.92;;
8694;SDS011;65580;49.446;6.854;2023-03-23T23:34:26;20.33;;;8.52;;
8694;SDS011;65580;49.446;6.854;2023-03-23T23:38:29;29.40;;;14.82;;
8694;SDS011;65580;49.446;6.854;2023-03-23T23:42:32;23.10;;;11.52;;
8694;SDS011;65580;49.446;6.854;2023-03-23T23:46:36;16.50;;;9.98;;
8694;SDS011;65580;49.446;6.854;2023-03-23T23:50:39;16.35;;;8.88;;
8694;SDS011;65580;49.446;6.854;2023-03-23T23:54:42;14.23;;;8.15;;
8694;SDS011;65580;49.446;6.854;2023-03-23T23:58:47;14.23;;;7.53;;
